Time;durP1;ratioP1;P1;durP2;ratioP2;P2;SDS_P1;SDS_P2;PMS_P1;PMS_P2;Temp;Humidity;BMP_temperature;BMP_pressure;BME280_temperature;BME280_humidity;BME280_pressure;Samples;Min_cycle;Max_cycle;Signal;HPM_P1;HPM_P2
2023/05/15 00:00:06;;;;;;;23.58;5.07;;;;;;;18.07;63.79;98489.56;5093145;28;20035;-46
2023/05/15 00:02:35;;;;;;;28.60;6.47;;;;;;;18.13;63.87;98487.75;5094313;28;20039;-46
2023/05/15 00:05:01;;;;;;;29.20;6.20;;;;;;;17.99;64.29;98481.25;5094404;28;20072;-46
2023/05/15 00:07:26;;;;;;;33.55;6.50;;;;;;;18.10;64.06;98483.72;5094305;28;20020;-46
2023/05/15 00:09:52;;;;;;;19.23;5.82;;;;;;;18.27;63.83;98483.59;5092998;28;20558;-46
2023/05/15 00:12:17;;;;;;;28.23;7.43;;;;;;;18.28;63.71;98469.25;5092947;28;20027;-46
2023/05/15 00:14:43;;;;;;;26.80;4.75;;;;;;;18.33;63.23;98463.16;5092872;28;20032;-47
2023/05/15 00:17:09;;;;;;;8.65;4.10;;;;;;;18.41;62.82;98459.22;5094139;28;20170;-47
2023/05/15 00:19:35;;;;;;;15.63;4.38;;;;;;;18.48;62.25;98463.25;5094111;28;20032;-46
2023/05/15 00:22:00;;;;;;;14.70;5.65;;;;;;;18.52;62.33;98458.22;5094212;28;20528;-46
2023/05/15 00:24:26;;;;;;;15.63;4.78;;;;;;;18.53;62.39;98452.66;5092708;28;20103;-46
2023/05/15 00:26:52;;;;;;;21.27;4.45;;;;;;;18.68;61.90;98454.59;5093924;28;20032;-46
2023/05/15 00:29:17;;;;;;;5.75;3.50;;;;;;;18.81;60.99;98468.50;5092584;28;20035;-46
2023/05/15 00:31:43;;;;;;;12.10;5.30;;;;;;;18.51;61.28;98473.38;5093861;28;20078;-47
2023/05/15 00:34:08;;;;;;;19.42;4.95;;;;;;;18.21;61.51;98463.38;5093863;28;20063;-46
2023/05/15 00:36:34;;;;;;;10.68;3.63;;;;;;;18.19;62.62;98473.44;5093751;28;20031;-46
2023/05/15 00:39:00;;;;;;;18.48;5.85;;;;;;;18.06;62.57;98477.31;5093724;28;20032;-46
2023/05/15 00:41:27;;;;;;;28.70;7.20;;;;;;;17.85;64.62;98479.03;5093457;28;20052;-46
2023/05/15 00:43:54;;;;;;;18.17;5.97;;;;;;;17.55;65.80;98485.63;5093525;28;20401;-46
2023/05/15 00:46:21;;;;;;;16.88;6.90;;;;;;;17.26;67.92;98489.56;5093517;28;20028;-46
2023/05/15 00:48:49;;;;;;;15.85;6.78;;;;;;;16.99;69.77;98502.78;5093539;28;20070;-46
2023/05/15 00:51:16;;;;;;;21.77;7.72;;;;;;;16.69;71.03;98511.91;5093422;28;20032;-46
2023/05/15 00:53:42;;;;;;;25.52;6.53;;;;;;;16.47;71.67;98507.34;5092088;28;20516;-48
2023/05/15 00:56:10;;;;;;;23.65;7.40;;;;;;;16.37;71.65;98499.25;5093274;28;20034;-49
2023/05/15 00:58:37;;;;;;;22.92;7.25;;;;;;;16.34;72.08;98497.09;5093332;28;20035;-49
2023/05/15 01:01:02;;;;;;;12.23;5.38;;;;;;;16.35;71.79;98496.84;5093332;28;20509;-48
2023/05/15 01:03:28;;;;;;;18.35;6.57;;;;;;;16.22;70.76;98489.25;5093099;28;20028;-49
2023/05/15 01:05:54;;;;;;;31.92;8.73;;;;;;;16.21;71.94;98484.19;5092322;28;20034;-49
2023/05/15 01:08:25;;;;;;;39.35;9.43;;;;;;;16.50;71.77;98472.44;5091918;28;20028;-49
2023/05/15 01:10:51;;;;;;;47.45;10.05;;;;;;;16.93;70.97;98475.41;5093118;28;20035;-49
2023/05/15 01:13:22;;;;;;;19.45;6.55;;;;;;;17.17;69.56;98467.97;5093088;28;20020;-49
2023/05/15 01:15:48;;;;;;;19.70;7.25;;;;;;;17.25;69.39;98466.75;5093041;28;20028;-49
2023/05/15 01:18:14;;;;;;;25.42;7.35;;;;;;;17.33;68.80;98474.25;5092971;28;20397;-49
2023/05/15 01:21:04;;;;;;;22.30;9.38;;;;;;;17.38;68.12;98469.00;5092895;28;20132;-49
2023/05/15 01:23:57;;;;;;;30.38;8.52;;;;;;;17.35;67.65;98470.28;5091539;28;20111;-49
2023/05/15 01:26:47;;;;;;;10.55;7.03;;;;;;;17.01;68.17;98482.13;5091515;28;20110;-49
2023/05/15 01:29:40;;;;;;;18.73;8.27;;;;;;;16.81;68.88;98477.34;5091466;28;20508;-49
2023/05/15 01:32:10;;;;;;;22.58;8.05;;;;;;;16.76;69.81;98475.41;5091462;28;20057;-49
2023/05/15 01:34:47;;;;;;;13.95;7.65;;;;;;;16.70;69.67;98477.22;5091394;28;20101;-49
2023/05/15 01:37:17;;;;;;;14.73;7.10;;;;;;;16.65;70.33;98477.13;5092709;28;20080;-49
2023/05/15 01:39:48;;;;;;;16.33;6.60;;;;;;;16.60;70.64;98479.72;5091318;28;20113;-48
2023/05/15 01:42:17;;;;;;;25.17;8.18;;;;;;;16.57;70.56;98474.91;5092328;28;20051;-49
2023/05/15 01:44:50;;;;;;;32.08;8.25;;;;;;;16.49;70.37;98486.72;5091152;28;20032;-49
2023/05/15 01:47:21;;;;;;;22.25;9.07;;;;;;;16.46;70.59;98489.03;5091377;28;20024;-49
2023/05/15 01:49:50;;;;;;;21.50;9.60;;;;;;;16.46;70.14;98497.81;5092501;28;20024;-49
2023/05/15 01:52:21;;;;;;;17.00;7.50;;;;;;;16.52;70.15;98480.94;5091073;28;20051;-49
2023/05/15 01:54:49;;;;;;;14.23;8.45;;;;;;;16.51;69.96;98486.47;5091107;28;20032;-49
2023/05/15 01:57:16;;;;;;;20.70;7.68;;;;;;;16.66;69.94;98489.34;5090962;28;20492;-49
2023/05/15 01:59:44;;;;;;;16.73;6.57;;;;;;;17.00;69.42;98485.81;5092274;28;20516;-49
2023/05/15 02:02:10;;;;;;;23.33;7.00;;;;;;;17.32;68.20;98485.91;5092157;28;20508;-49
2023/05/15 02:04:37;;;;;;;21.83;8.40;;;;;;;17.41;67.05;98486.28;5090860;28;20031;-49
2023/05/15 02:07:03;;;;;;;10.75;7.47;;;;;;;17.39;67.23;98481.22;5092127;28;20505;-49
2023/05/15 02:09:30;;;;;;;10.85;7.07;;;;;;;17.31;66.57;98482.47;5092031;28;20020;-49
2023/05/15 02:11:57;;;;;;;13.63;5.85;;;;;;;17.35;66.42;98493.38;5090778;28;20027;-49
2023/05/15 02:14:25;;;;;;;18.27;6.93;;;;;;;17.49;66.31;98485.84;5090856;28;20060;-48
2023/05/15 02:16:51;;;;;;;15.27;6.75;;;;;;;17.63;65.72;98486.22;5091784;28;20024;-49
2023/05/15 02:19:17;;;;;;;13.55;6.57;;;;;;;17.67;64.15;98482.81;5092307;28;20030;-49
2023/05/15 02:21:43;;;;;;;25.15;7.18;;;;;;;17.53;64.67;98490.38;5091909;28;20405;-49
2023/05/15 02:24:08;;;;;;;22.58;7.57;;;;;;;17.33;64.74;98490.97;5092019;28;20550;-49
2023/05/15 02:26:53;;;;;;;23.08;12.35;;;;;;;17.23;65.06;98479.47;5091901;28;20054;-49
2023/05/15 02:29:48;;;;;;;16.48;11.68;;;;;;;17.16;64.76;98474.31;5090664;28;20545;-48
2023/05/15 02:32:28;;;;;;;40.60;29.08;;;;;;;17.10;65.09;98473.50;5091875;28;20371;-48
2023/05/15 02:35:00;;;;;;;16.80;6.90;;;;;;;17.07;65.49;98478.47;5090696;28;20028;-49
2023/05/15 02:37:33;;;;;;;11.55;6.50;;;;;;;17.12;65.23;98468.75;5090451;28;20169;-49
2023/05/15 02:40:00;;;;;;;15.98;7.43;;;;;;;17.11;64.84;98466.31;5091649;28;20023;-49
2023/05/15 02:42:28;;;;;;;15.80;7.50;;;;;;;16.92;64.87;98466.66;5090408;28;20024;-48
2023/05/15 02:44:56;;;;;;;18.20;8.18;;;;;;;16.78;65.46;98468.00;5091735;28;20460;-49
2023/05/15 02:47:24;;;;;;;13.57;8.20;;;;;;;16.95;64.67;98471.44;5090417;28;20173;-49
2023/05/15 02:49:50;;;;;;;17.58;8.93;;;;;;;16.83;65.26;98468.13;5091763;28;20554;-48
2023/05/15 02:52:16;;;;;;;12.63;9.10;;;;;;;16.60;65.51;98457.72;5090316;28;20478;-49
2023/05/15 02:54:42;;;;;;;25.02;9.35;;;;;;;16.51;66.74;98458.13;5091680;28;20106;-49
2023/05/15 02:57:08;;;;;;;17.88;9.35;;;;;;;16.60;66.70;98458.53;5091708;28;20051;-49
2023/05/15 02:59:34;;;;;;;18.40;9.52;;;;;;;16.81;66.80;98462.25;5091626;28;20494;-49
2023/05/15 03:02:02;;;;;;;24.20;10.40;;;;;;;16.91;65.91;98458.94;5090250;28;20081;-49
2023/05/15 03:04:28;;;;;;;25.85;11.32;;;;;;;16.91;65.63;98456.28;5091650;28;20035;-49
2023/05/15 03:06:54;;;;;;;16.40;11.38;;;;;;;16.95;65.79;98455.53;5091602;28;20107;-49
2023/05/15 03:09:19;;;;;;;28.90;11.75;;;;;;;16.96;65.59;98446.56;5090232;28;20028;-49
2023/05/15 03:11:45;;;;;;;21.20;11.43;;;;;;;16.95;65.22;98452.88;5091600;28;20027;-49
2023/05/15 03:14:11;;;;;;;27.98;12.50;;;;;;;16.84;64.78;98453.00;5090208;28;20059;-49
2023/05/15 03:16:37;;;;;;;25.83;12.07;;;;;;;16.63;65.50;98455.38;5091514;28;20020;-49
2023/05/15 03:19:04;;;;;;;17.45;11.63;;;;;;;16.70;66.06;98455.19;5090187;28;20442;-49
2023/05/15 03:21:30;;;;;;;22.52;12.43;;;;;;;16.72;65.71;98469.00;5091454;28;20026;-49
2023/05/15 03:23:56;;;;;;;20.38;12.57;;;;;;;16.80;65.64;98468.56;5090076;28;20028;-49
2023/05/15 03:26:22;;;;;;;22.52;11.80;;;;;;;16.93;65.43;98465.59;5091554;28;20067;-49
2023/05/15 03:28:47;;;;;;;21.15;12.65;;;;;;;17.02;64.77;98473.09;5092487;28;20035;-49
2023/05/15 03:31:13;;;;;;;16.85;12.20;;;;;;;17.00;64.38;98473.34;5095038;28;20073;-49
2023/05/15 03:33:39;;;;;;;28.17;14.35;;;;;;;17.02;64.41;98481.06;5093708;28;20024;-49
2023/05/15 03:36:06;;;;;;;26.17;12.30;;;;;;;16.93;64.34;98483.34;5093686;28;20028;-48
2023/05/15 03:38:31;;;;;;;27.65;12.70;;;;;;;16.87;64.48;98489.63;5094937;28;20440;-48
2023/05/15 03:40:57;;;;;;;22.25;12.73;;;;;;;16.88;64.74;98485.91;5094742;28;20052;-49
2023/05/15 03:43:23;;;;;;;31.27;13.93;;;;;;;16.91;64.70;98488.88;5093464;28;20031;-49
2023/05/15 03:45:49;;;;;;;29.83;13.93;;;;;;;16.88;64.40;98489.41;5094812;28;20042;-49
2023/05/15 03:48:14;;;;;;;36.47;15.32;;;;;;;16.76;64.67;98492.13;5094724;28;20020;-49
2023/05/15 03:50:40;;;;;;;20.40;12.73;;;;;;;16.76;64.76;98489.47;5094751;28;20055;-50
2023/05/15 03:53:06;;;;;;;27.38;15.48;;;;;;;16.61;64.95;98491.13;5093363;28;20020;-49
2023/05/15 03:55:32;;;;;;;33.85;15.10;;;;;;;16.47;65.27;98494.09;5093212;28;20081;-49
2023/05/15 03:57:57;;;;;;;30.45;15.82;;;;;;;16.34;65.55;98489.16;5093315;28;20047;-48
2023/05/15 04:00:23;;;;;;;33.90;16.38;;;;;;;16.29;65.96;98494.38;5094487;28;20490;-49
2023/05/15 04:02:50;;;;;;;36.58;16.48;;;;;;;16.31;66.23;98486.97;5094406;28;20371;-49
2023/05/15 04:05:18;;;;;;;40.72;17.50;;;;;;;16.40;66.20;98493.50;5093046;28;20127;-49
2023/05/15 04:07:44;;;;;;;26.58;14.82;;;;;;;16.43;65.53;98494.84;5094619;28;20089;-49
2023/05/15 04:10:10;;;;;;;21.70;15.45;;;;;;;16.37;65.38;98491.31;5094323;28;20494;-49
2023/05/15 04:12:35;;;;;;;27.00;15.80;;;;;;;16.31;65.18;98494.94;5094354;28;20056;-49
2023/05/15 04:15:21;;;;;;;33.53;15.55;;;;;;;16.24;65.57;98492.44;5094181;28;20028;-49
2023/05/15 04:17:48;;;;;;;;;;;;;;;16.28;65.95;98490.91;5094646;28;20478;-49
2023/05/15 04:20:15;;;;;;;22.45;14.15;;;;;;;16.30;65.86;98482.75;5092795;28;20057;-48
2023/05/15 04:22:41;;;;;;;29.98;14.82;;;;;;;16.37;65.72;98480.72;5092674;28;20031;-49
2023/05/15 04:25:08;;;;;;;29.42;15.60;;;;;;;16.43;65.67;98474.44;5092675;28;20409;-49
2023/05/15 04:27:35;;;;;;;25.02;14.02;;;;;;;16.49;65.79;98475.31;5094038;28;20032;-49
2023/05/15 04:30:02;;;;;;;28.42;14.18;;;;;;;16.51;65.40;98473.22;5092615;28;20032;-49
2023/05/15 04:32:29;;;;;;;26.45;15.35;;;;;;;16.55;65.36;98474.34;5093867;28;20509;-49
2023/05/15 04:34:55;;;;;;;23.30;14.40;;;;;;;16.74;64.97;98467.72;5093890;28;20565;-49
2023/05/15 04:37:21;;;;;;;36.40;15.88;;;;;;;16.86;64.16;98470.28;5092497;28;20051;-49
2023/05/15 04:39:47;;;;;;;33.97;15.48;;;;;;;16.86;64.06;98475.59;5093577;28;20024;-48
2023/05/15 04:42:13;;;;;;;20.55;14.45;;;;;;;16.81;63.80;98472.88;5092130;28;20055;-49
2023/05/15 04:44:38;;;;;;;28.20;14.90;;;;;;;16.75;63.55;98471.97;5093711;28;20394;-49
2023/05/15 04:47:05;;;;;;;28.85;15.63;;;;;;;16.77;63.32;98471.72;5093458;28;20052;-48
2023/05/15 04:49:31;;;;;;;21.25;14.73;;;;;;;16.68;63.21;98475.81;5092218;28;20032;-49
2023/05/15 04:51:57;;;;;;;26.17;14.45;;;;;;;16.71;63.66;98470.84;5092126;28;20028;-49
2023/05/15 04:54:23;;;;;;;23.38;14.52;;;;;;;16.92;63.56;98465.81;5092129;28;20040;-49
2023/05/15 04:56:48;;;;;;;20.15;14.48;;;;;;;17.12;63.07;98460.78;5092057;28;20547;-49
2023/05/15 04:59:15;;;;;;;23.05;14.65;;;;;;;17.25;62.08;98467.53;5093380;28;20028;-48
2023/05/15 05:01:40;;;;;;;17.65;12.85;;;;;;;17.34;61.99;98466.06;5092037;28;20081;-49
2023/05/15 05:04:06;;;;;;;23.63;14.48;;;;;;;17.50;61.42;98468.84;5093213;28;20398;-49
2023/05/15 05:06:31;;;;;;;25.38;14.45;;;;;;;17.68;61.39;98465.03;5093252;28;20031;-49
2023/05/15 05:08:57;;;;;;;18.95;13.85;;;;;;;17.77;60.47;98466.19;5093239;28;20031;-49
2023/05/15 05:11:23;;;;;;;26.67;16.25;;;;;;;17.72;60.40;98464.28;5093124;28;20401;-49
2023/05/15 05:13:51;;;;;;;34.92;16.02;;;;;;;17.51;60.66;98459.84;5093111;28;20421;-49
2023/05/15 05:16:17;;;;;;;23.92;15.20;;;;;;;17.35;61.11;98457.03;5091654;28;20027;-49
2023/05/15 05:18:42;;;;;;;23.83;14.68;;;;;;;17.31;61.17;98460.44;5093027;28;20038;-48
2023/05/15 05:21:08;;;;;;;22.90;15.55;;;;;;;17.23;61.46;98469.63;5092934;28;20050;-48
2023/05/15 05:23:33;;;;;;;25.20;16.75;;;;;;;17.16;61.54;98466.38;5092853;28;20035;-49
2023/05/15 05:25:59;;;;;;;30.50;16.92;;;;;;;16.91;61.88;98483.59;5092814;28;20038;-49
2023/05/15 05:28:25;;;;;;;28.48;17.70;;;;;;;16.78;62.55;98475.97;5092813;28;20028;-49
2023/05/15 05:30:51;;;;;;;28.55;18.40;;;;;;;16.67;62.72;98485.63;5091766;28;20063;-49
2023/05/15 05:33:16;;;;;;;33.40;17.40;;;;;;;16.51;63.14;98483.81;5092642;28;20425;-49
2023/05/15 05:35:42;;;;;;;35.53;18.17;;;;;;;16.44;63.57;98473.41;5091382;28;20081;-48
2023/05/15 05:38:08;;;;;;;25.80;16.83;;;;;;;16.45;63.79;98471.56;5092654;28;20462;-49
2023/05/15 05:40:33;;;;;;;21.75;16.08;;;;;;;16.57;63.96;98477.56;5091116;28;20525;-49
2023/05/15 05:43:00;;;;;;;21.35;16.48;;;;;;;16.71;63.19;98484.09;5091180;28;20413;-48
2023/05/15 05:45:25;;;;;;;20.75;15.55;;;;;;;16.73;63.20;98475.91;5091174;28;20031;-49
2023/05/15 05:47:51;;;;;;;24.95;16.20;;;;;;;16.78;63.34;98479.44;5092472;28;20024;-48
2023/05/15 05:50:17;;;;;;;21.95;15.65;;;;;;;16.92;63.23;98493.16;5090557;28;20119;-49
2023/05/15 05:52:43;;;;;;;22.33;15.13;;;;;;;17.00;62.94;98485.81;5091062;28;20020;-49
2023/05/15 05:55:09;;;;;;;19.77;16.20;;;;;;;17.10;62.71;98468.19;5092344;28;20421;-49
2023/05/15 05:57:34;;;;;;;20.88;15.30;;;;;;;17.22;62.10;98472.53;5091022;28;20051;-49
2023/05/15 06:00:00;;;;;;;21.00;15.00;;;;;;;17.43;61.83;98468.25;5092222;28;20028;-49
2023/05/15 06:02:26;;;;;;;21.98;15.02;;;;;;;17.72;60.77;98469.56;5092158;28;20112;-49
2023/05/15 06:04:51;;;;;;;26.00;16.92;;;;;;;17.81;60.29;98471.78;5092166;28;20032;-49
2023/05/15 06:07:17;;;;;;;24.77;15.88;;;;;;;18.02;60.15;98470.91;5090772;28;20068;-49
2023/05/15 06:09:44;;;;;;;25.23;15.88;;;;;;;18.13;59.67;98469.94;5074019;28;20028;-49
2023/05/15 06:12:11;;;;;;;35.75;15.68;;;;;;;18.19;59.57;98472.63;5090743;28;20020;-49
2023/05/15 06:14:36;;;;;;;26.73;16.02;;;;;;;18.25;59.29;98463.63;5092052;28;20058;-48
2023/05/15 06:17:02;;;;;;;20.48;15.48;;;;;;;18.28;59.04;98466.59;5090688;28;20109;-49
2023/05/15 06:19:29;;;;;;;21.27;15.82;;;;;;;18.36;58.77;98471.41;5092028;28;20596;-49
2023/05/15 06:21:54;;;;;;;22.42;16.52;;;;;;;18.21;58.60;98476.66;5091802;28;20058;-49
2023/05/15 06:24:20;;;;;;;26.65;15.63;;;;;;;18.17;59.23;98473.69;5090626;28;20108;-49
2023/05/15 06:26:46;;;;;;;23.80;15.85;;;;;;;18.38;58.87;98479.16;5091930;28;20027;-49
2023/05/15 06:29:11;;;;;;;26.00;16.05;;;;;;;18.55;57.95;98484.28;5090563;28;20036;-46
2023/05/15 06:31:37;;;;;;;18.88;15.70;;;;;;;18.54;58.03;98472.84;5091959;28;20381;-47
2023/05/15 06:34:03;;;;;;;26.92;17.17;;;;;;;18.57;57.60;98471.53;5090540;28;20459;-46
2023/05/15 06:36:29;;;;;;;32.78;15.63;;;;;;;18.59;57.47;98463.31;5090471;28;20410;-46
2023/05/15 06:38:54;;;;;;;34.15;17.17;;;;;;;18.53;57.71;98476.59;5091823;28;20031;-47
2023/05/15 06:41:20;;;;;;;28.25;16.63;;;;;;;18.58;57.57;98472.34;5091598;28;20101;-46
2023/05/15 06:43:46;;;;;;;52.28;20.13;;;;;;;18.52;57.63;98485.59;5091644;28;20028;-46
2023/05/15 06:46:14;;;;;;;44.95;17.35;;;;;;;18.59;57.56;98482.72;5091702;28;20522;-46
2023/05/15 06:48:40;;;;;;;55.13;18.23;;;;;;;18.60;57.48;98480.88;5091653;28;20028;-47
2023/05/15 06:51:06;;;;;;;35.97;17.00;;;;;;;18.56;57.36;98478.72;5090404;28;20039;-46
2023/05/15 06:53:32;;;;;;;32.85;17.25;;;;;;;18.50;57.16;98484.28;5091671;28;20457;-46
2023/05/15 06:55:57;;;;;;;42.22;17.98;;;;;;;18.32;57.50;98485.47;5091654;28;20478;-47
2023/05/15 06:58:24;;;;;;;119.13;22.92;;;;;;;18.18;58.18;98485.13;5091540;28;20418;-46
2023/05/15 07:00:50;;;;;;;54.55;18.15;;;;;;;18.10;58.68;98488.25;5091657;28;20097;-46
2023/05/15 07:03:16;;;;;;;54.83;20.15;;;;;;;18.13;58.93;98490.41;5093247;28;20501;-46
2023/05/15 07:05:42;;;;;;;110.90;22.33;;;;;;;18.25;58.98;98483.06;5095488;28;20466;-46
2023/05/15 07:08:08;;;;;;;159.38;24.98;;;;;;;18.40;58.40;98485.00;5094214;28;20036;-46
2023/05/15 07:10:33;;;;;;;52.28;20.40;;;;;;;18.42;58.25;98487.41;5094283;28;20028;-46
2023/05/15 07:12:59;;;;;;;40.50;16.83;;;;;;;18.32;58.66;98486.28;5094166;28;20020;-46
2023/05/15 07:15:24;;;;;;;33.80;18.95;;;;;;;18.29;58.21;98496.59;5095316;28;20043;-46
2023/05/15 07:17:50;;;;;;;39.58;19.30;;;;;;;18.15;58.41;98491.75;5095381;28;20102;-46
2023/05/15 07:20:16;;;;;;;25.05;18.67;;;;;;;18.03;58.34;98485.81;5095226;28;20050;-46
2023/05/15 07:22:41;;;;;;;27.35;17.60;;;;;;;17.94;58.81;98495.28;5095199;28;20107;-46
2023/05/15 07:25:07;;;;;;;27.77;17.92;;;;;;;17.94;59.09;98487.31;5093842;28;20476;-46
2023/05/15 07:27:33;;;;;;;81.20;21.77;;;;;;;17.91;59.02;98491.28;5093983;28;20024;-46
2023/05/15 07:30:00;;;;;;;111.93;22.58;;;;;;;17.89;59.67;98484.63;5095092;28;20030;-46
2023/05/15 07:32:25;;;;;;;121.93;23.67;;;;;;;17.88;59.65;98478.50;5095018;28;20027;-46
2023/05/15 07:34:51;;;;;;;73.05;20.60;;;;;;;17.86;59.52;98493.88;5095082;28;20024;-46
2023/05/15 07:37:17;;;;;;;66.68;21.42;;;;;;;17.86;59.72;98483.28;5095180;28;20028;-46
2023/05/15 07:39:42;;;;;;;94.15;20.65;;;;;;;17.94;59.85;98484.66;5094942;28;20032;-46
2023/05/15 07:42:08;;;;;;;50.40;18.95;;;;;;;18.06;59.61;98492.47;5094618;28;20055;-46
2023/05/15 07:44:34;;;;;;;80.25;21.50;;;;;;;18.35;59.14;98483.13;5094898;28;20036;-46
2023/05/15 07:46:59;;;;;;;36.42;19.17;;;;;;;18.70;57.43;98484.38;5094737;28;20028;-46
2023/05/15 07:49:25;;;;;;;128.98;23.88;;;;;;;18.97;57.22;98486.13;5093383;28;20024;-46
2023/05/15 07:51:50;;;;;;;105.10;23.10;;;;;;;19.20;56.07;98482.22;5094729;28;20039;-46
2023/05/15 07:54:16;;;;;;;119.57;22.08;;;;;;;19.04;55.75;98492.00;5094653;28;20035;-46
2023/05/15 07:56:42;;;;;;;97.88;22.95;;;;;;;18.90;55.81;98467.75;5094590;28;20104;-46
2023/05/15 07:59:08;;;;;;;94.43;21.90;;;;;;;18.85;56.24;98473.03;5093621;28;20032;-47
2023/05/15 08:01:34;;;;;;;140.70;24.20;;;;;;;19.03;55.67;98468.31;5093262;28;20533;-46
2023/05/15 08:03:59;;;;;;;111.82;21.45;;;;;;;19.22;55.71;98474.00;5094480;28;20413;-46
2023/05/15 08:06:25;;;;;;;54.65;19.98;;;;;;;19.98;54.59;98470.66;5094424;28;20410;-46
2023/05/15 08:08:51;;;;;;;33.95;17.67;;;;;;;20.82;52.95;98463.03;5094411;28;20076;-46
2023/05/15 08:11:17;;;;;;;47.63;18.60;;;;;;;21.90;50.47;98459.75;5092998;28;20436;-47
2023/05/15 08:13:43;;;;;;;34.60;16.70;;;;;;;23.37;47.21;98449.59;5093760;28;20039;-46
2023/05/15 08:16:08;;;;;;;40.83;22.85;;;;;;;24.38;43.48;98435.59;5094128;28;20024;-47
2023/05/15 08:18:34;;;;;;;90.78;19.55;;;;;;;24.20;43.60;98436.47;5094228;28;20405;-47
2023/05/15 08:21:00;;;;;;;61.45;18.77;;;;;;;23.91;43.84;98429.50;5092790;28;20050;-46
2023/05/15 08:23:25;;;;;;;41.85;16.13;;;;;;;24.04;43.79;98425.25;5092676;28;20035;-46
2023/05/15 08:25:51;;;;;;;29.65;16.55;;;;;;;24.09;43.79;98427.84;5094309;28;20039;-47
2023/05/15 08:28:17;;;;;;;25.25;17.40;;;;;;;24.59;42.40;98429.88;5092696;28;20120;-46
2023/05/15 08:30:42;;;;;;;22.42;16.05;;;;;;;25.08;41.14;98421.06;5092643;28;20070;-45
2023/05/15 08:33:08;;;;;;;28.95;18.67;;;;;;;25.06;40.68;98425.94;5093886;28;20051;-47
2023/05/15 08:35:34;;;;;;;26.02;17.40;;;;;;;25.34;39.64;98425.13;5092521;28;20047;-46
2023/05/15 08:37:59;;;;;;;23.38;16.58;;;;;;;26.13;38.57;98416.47;5093853;28;20402;-46
2023/05/15 08:40:25;;;;;;;19.63;14.63;;;;;;;27.62;35.95;98412.94;5092366;28;20040;-47
2023/05/15 08:42:57;;;;;;;20.05;13.90;;;;;;;28.51;33.39;98400.81;5093910;28;20036;-47
2023/05/15 08:45:23;;;;;;;24.02;15.00;;;;;;;27.88;34.15;98422.91;5092259;28;20123;-47
2023/05/15 08:47:48;;;;;;;21.75;11.82;;;;;;;28.10;33.40;98411.13;5092269;28;20147;-47
2023/05/15 08:50:16;;;;;;;22.85;13.40;;;;;;;29.31;32.15;98408.84;5092202;28;20039;-46
2023/05/15 08:52:48;;;;;;;19.33;12.27;;;;;;;29.95;31.54;98399.50;5092183;28;20111;-47
2023/05/15 08:55:14;;;;;;;15.25;12.35;;;;;;;30.89;29.79;98392.44;5076227;28;20028;-47
2023/05/15 08:57:41;;;;;;;17.05;12.07;;;;;;;30.80;29.28;98391.75;5093724;28;20526;-47
2023/05/15 09:00:08;;;;;;;20.23;12.02;;;;;;;30.16;29.66;98396.69;5093321;28;20177;-47
2023/05/15 09:02:41;;;;;;;16.50;10.80;;;;;;;30.03;29.77;98401.31;5075066;28;20040;-47
2023/05/15 09:05:08;;;;;;;16.67;13.23;;;;;;;29.55;30.26;98396.56;5093156;28;20020;-46
2023/05/15 09:07:35;;;;;;;20.13;12.07;;;;;;;28.75;31.41;98397.47;5093265;28;20027;-47
2023/05/15 09:10:02;;;;;;;20.58;12.43;;;;;;;28.53;31.92;98383.16;5093233;28;20433;-47
2023/05/15 09:12:33;;;;;;;21.77;12.27;;;;;;;29.14;31.37;98390.88;5093218;28;20077;-47
2023/05/15 09:15:29;;;;;;;18.15;12.80;;;;;;;28.52;32.52;98392.38;5092164;28;20051;-47
2023/05/15 09:17:55;;;;;;;22.10;13.18;;;;;;;28.06;33.25;98405.56;5080263;28;20036;-47
2023/05/15 09:20:35;;;;;;;19.92;11.50;;;;;;;28.64;33.72;98391.69;5092987;28;20031;-46
2023/05/15 09:23:04;;;;;;;32.40;11.38;;;;;;;30.39;30.14;98382.78;5092890;28;20078;-47
2023/05/15 09:25:38;;;;;;;16.17;10.93;;;;;;;30.36;28.72;98383.44;5092040;28;20038;-47
2023/05/15 09:28:27;;;;;;;22.35;10.98;;;;;;;29.67;29.15;98383.84;5092911;28;20397;-47
2023/05/15 09:31:04;;;;;;;19.02;11.35;;;;;;;29.24;30.39;98382.38;5092796;28;20028;-47
2023/05/15 09:33:34;;;;;;;20.05;9.70;;;;;;;29.99;29.39;98381.47;5091456;28;20440;-47
2023/05/15 09:36:02;;;;;;;11.75;9.95;;;;;;;30.82;28.29;98379.41;5092591;28;20106;-47
2023/05/15 09:38:28;;;;;;;13.40;9.93;;;;;;;31.26;27.75;98368.69;5092599;28;20523;-47
2023/05/15 09:41:07;;;;;;;16.75;9.25;;;;;;;31.85;26.89;98366.38;5091304;28;20483;-47
2023/05/15 09:43:37;;;;;;;20.65;9.73;;;;;;;32.01;26.00;98369.13;5091191;28;20035;-47
2023/05/15 09:46:04;;;;;;;17.30;10.40;;;;;;;32.25;26.24;98371.63;5092843;28;20110;-46
2023/05/15 09:48:30;;;;;;;14.00;9.88;;;;;;;31.93;26.51;98373.53;5092513;28;20031;-47
2023/05/15 09:50:56;;;;;;;14.95;8.23;;;;;;;32.58;26.13;98356.13;5092668;28;20027;-47
2023/05/15 09:53:23;;;;;;;11.60;8.27;;;;;;;33.79;24.64;98362.38;5092342;28;20020;-47
2023/05/15 09:55:49;;;;;;;13.45;8.20;;;;;;;34.59;23.79;98354.28;5092363;28;20447;-47
2023/05/15 09:58:17;;;;;;;15.43;7.95;;;;;;;34.23;23.35;98356.50;5092263;28;20024;-47
2023/05/15 10:00:44;;;;;;;10.60;8.20;;;;;;;33.91;23.35;98362.19;5092265;28;20032;-47
2023/05/15 10:03:11;;;;;;;16.02;8.20;;;;;;;34.20;23.02;98366.19;5090842;28;20039;-47
2023/05/15 10:05:37;;;;;;;11.38;8.35;;;;;;;34.18;23.34;98340.47;5092179;28;20032;-47
2023/05/15 10:08:04;;;;;;;10.20;7.45;;;;;;;32.98;24.11;98358.50;5092167;28;20504;-47
2023/05/15 10:10:30;;;;;;;17.90;8.57;;;;;;;31.81;24.96;98349.19;5090871;28;20406;-48
2023/05/15 10:13:01;;;;;;;14.70;8.38;;;;;;;30.41;26.73;98358.84;5092036;28;20051;-47
2023/05/15 10:15:28;;;;;;;10.75;8.50;;;;;;;29.30;28.65;98357.81;5092302;28;20032;-47
2023/05/15 10:17:54;;;;;;;14.50;9.43;;;;;;;29.21;29.34;98360.63;5092028;28;20024;-47
2023/05/15 10:20:24;;;;;;;13.18;9.07;;;;;;;29.00;29.82;98349.81;5073963;28;20043;-46
2023/05/15 10:22:55;;;;;;;14.38;8.80;;;;;;;29.87;29.17;98351.69;5091906;28;20485;-47
2023/05/15 10:25:35;;;;;;;15.43;9.25;;;;;;;31.01;26.92;98348.25;5091970;28;20031;-47
2023/05/15 10:28:02;;;;;;;14.85;8.63;;;;;;;31.12;26.55;98343.91;5090581;28;20115;-46
2023/05/15 10:30:28;;;;;;;9.68;8.05;;;;;;;31.44;26.40;98336.66;5090660;28;20110;-47
2023/05/15 10:32:55;;;;;;;8.25;6.57;;;;;;;31.88;25.74;98335.81;5090647;28;20100;-47
2023/05/15 10:35:21;;;;;;;9.65;7.57;;;;;;;31.64;26.31;98329.41;5090484;28;20119;-47
2023/05/15 10:37:48;;;;;;;14.80;7.28;;;;;;;31.79;25.03;98322.44;5093439;28;20031;-47
2023/05/15 10:40:16;;;;;;;7.65;6.82;;;;;;;31.05;26.26;98322.81;5094535;28;20066;-47
2023/05/15 10:42:43;;;;;;;11.75;6.95;;;;;;;31.10;26.36;98316.34;5096241;28;20398;-46
2023/05/15 10:45:09;;;;;;;11.10;7.47;;;;;;;31.45;26.43;98307.59;5094970;28;20044;-47
2023/05/15 10:47:37;;;;;;;11.13;7.82;;;;;;;31.43;26.00;98307.94;5094916;28;20058;-47
2023/05/15 10:50:04;;;;;;;17.35;8.48;;;;;;;30.22;28.08;98313.34;5095802;28;20032;-46
2023/05/15 10:52:35;;;;;;;13.02;9.32;;;;;;;28.72;29.39;98320.63;5094680;28;20031;-47
2023/05/15 10:55:04;;;;;;;13.77;8.27;;;;;;;28.07;30.86;98317.31;5094615;28;20157;-47
2023/05/15 10:57:31;;;;;;;11.02;8.30;;;;;;;28.93;29.60;98309.00;5094464;28;20058;-47
2023/05/15 10:59:57;;;;;;;12.00;8.48;;;;;;;29.23;28.83;98317.81;5095693;28;20074;-47
2023/05/15 11:02:29;;;;;;;11.77;9.05;;;;;;;28.60;29.59;98312.44;5095602;28;20028;-47
2023/05/15 11:05:00;;;;;;;22.75;8.77;;;;;;;28.40;30.34;98314.75;5095853;28;20439;-46
2023/05/15 11:07:26;;;;;;;17.77;8.35;;;;;;;29.19;28.85;98306.88;5095543;28;20073;-46
2023/05/15 11:09:53;;;;;;;14.20;8.30;;;;;;;30.41;27.63;98300.06;5094526;28;20046;-47
2023/05/15 11:12:19;;;;;;;14.45;8.55;;;;;;;31.09;26.85;98295.81;5094124;28;20031;-47
2023/05/15 11:14:51;;;;;;;20.35;8.90;;;;;;;30.30;26.52;98287.28;5095447;28;20028;-47
2023/05/15 11:17:17;;;;;;;25.80;9.98;;;;;;;29.35;27.93;98284.63;5095327;28;20032;-46
2023/05/15 11:19:49;;;;;;;15.50;8.68;;;;;;;28.73;28.90;98287.06;5095267;28;20038;-46
2023/05/15 11:22:17;;;;;;;21.27;9.55;;;;;;;29.15;28.87;98270.06;5093856;28;20130;-46